Time;durP1;ratioP1;P1;durP2;ratioP2;P2;SDS_P1;SDS_P2;PMS_P1;PMS_P2;Temp;Humidity;BMP_temperature;BMP_pressure;BME280_temperature;BME280_humidity;BME280_pressure;Samples;Min_cycle;Max_cycle;Signal;HPM_P1;HPM_P2
2021/03/18 00:01:06;;;;;;;4.85;1.92;;;;;;;;;;5098465;28;20089;-53
2021/03/18 00:03:34;;;;;;;6.68;2.22;;;;;;;;;;5093740;28;20055;-52
2021/03/18 00:05:59;;;;;;;5.35;2.60;;;;;;;;;;5096821;28;20678;-50
2021/03/18 00:08:25;;;;;;;5.97;2.40;;;;;;;;;;5094489;28;20130;-51
2021/03/18 00:10:52;;;;;;;3.80;2.10;;;;;;;;;;5096689;28;20071;-50
2021/03/18 00:13:19;;;;;;;6.25;2.05;;;;;;;;;;5096487;28;20052;-50
2021/03/18 00:15:45;;;;;;;5.25;2.63;;;;;;;;;;5094596;28;20099;-54
2021/03/18 00:18:13;;;;;;;9.27;3.67;;;;;;;;;;5095636;28;20035;-53
2021/03/18 00:20:39;;;;;;;6.97;3.70;;;;;;;;;;5100581;28;20027;-53
2021/03/18 00:23:05;;;;;;;8.98;4.32;;;;;;;;;;5096733;28;20043;-49
2021/03/18 00:25:31;;;;;;;16.45;5.43;;;;;;;;;;5104702;27;20031;-51
2021/03/18 00:27:56;;;;;;;9.68;5.32;;;;;;;;;;5100690;27;20050;-51
2021/03/18 00:30:23;;;;;;;8.10;4.72;;;;;;;;;;5099907;28;20032;-52
2021/03/18 00:32:49;;;;;;;10.68;4.90;;;;;;;;;;5104019;27;20028;-53
2021/03/18 00:35:15;;;;;;;8.35;4.43;;;;;;;;;;5096860;27;20058;-53
2021/03/18 00:37:43;;;;;;;7.75;5.00;;;;;;;;;;5103815;27;20069;-54
2021/03/18 00:40:16;;;;;;;10.45;4.78;;;;;;;;;;5099655;28;20047;-52
2021/03/18 00:42:57;;;;;;;8.65;4.97;;;;;;;;;;5099527;27;20481;-54
2021/03/18 00:45:23;;;;;;;11.18;5.55;;;;;;;;;;5101572;27;20032;-52
2021/03/18 00:47:49;;;;;;;10.05;4.53;;;;;;;;;;5103397;27;20036;-50
2021/03/18 00:50:31;;;;;;;7.57;4.38;;;;;;;;;;5105533;27;20051;-51
2021/03/18 00:52:57;;;;;;;9.40;4.10;;;;;;;;;;5102483;27;20031;-54
2021/03/18 00:55:23;;;;;;;7.18;3.88;;;;;;;;;;5103708;27;20047;-51
2021/03/18 00:57:49;;;;;;;8.77;3.80;;;;;;;;;;5101432;28;20107;-52
2021/03/18 01:00:23;;;;;;;7.60;4.15;;;;;;;;;;5099816;27;20941;-53
2021/03/18 01:02:52;;;;;;;6.38;2.90;;;;;;;;;;5102181;28;20035;-55
2021/03/18 01:05:28;;;;;;;6.68;3.30;;;;;;;;;;5102768;27;20077;-55
2021/03/18 01:07:54;;;;;;;8.00;3.40;;;;;;;;;;5100875;28;20027;-51
2021/03/18 01:10:19;;;;;;;6.10;2.70;;;;;;;;;;5098094;27;20082;-50
2021/03/18 01:12:45;;;;;;;8.40;2.75;;;;;;;;;;5100360;27;20020;-54
2021/03/18 01:15:12;;;;;;;10.20;2.92;;;;;;;;;;5097851;27;20460;-53
2021/03/18 01:17:38;;;;;;;5.80;2.58;;;;;;;;;;5103257;28;20449;-53
2021/03/18 01:20:05;;;;;;;5.60;2.92;;;;;;;;;;5105116;27;20069;-53
2021/03/18 01:22:31;;;;;;;4.53;2.38;;;;;;;;;;5099991;28;20078;-49
2021/03/18 01:24:56;;;;;;;6.75;2.60;;;;;;;;;;5102639;27;20081;-54
2021/03/18 01:27:23;;;;;;;4.75;2.38;;;;;;;;;;5114982;27;20069;-53
2021/03/18 01:29:50;;;;;;;5.05;2.45;;;;;;;;;;5099445;28;20043;-53
2021/03/18 01:32:16;;;;;;;4.63;2.10;;;;;;;;;;5099297;28;20111;-51
2021/03/18 01:34:42;;;;;;;6.32;2.30;;;;;;;;;;5101577;27;20461;-54
2021/03/18 01:37:07;;;;;;;9.05;3.67;;;;;;;;;;5102562;28;20054;-54
2021/03/18 01:39:33;;;;;;;8.00;3.67;;;;;;;;;;5109686;27;20031;-50
2021/03/18 01:41:58;;;;;;;7.63;3.88;;;;;;;;;;5098959;28;20627;-53
2021/03/18 01:44:23;;;;;;;8.52;3.15;;;;;;;;;;5096968;28;20388;-52
2021/03/18 01:46:49;;;;;;;5.93;3.53;;;;;;;;;;5101651;28;20039;-50
2021/03/18 01:49:17;;;;;;;6.97;3.65;;;;;;;;;;5102307;28;20034;-53
2021/03/18 01:51:43;;;;;;;8.40;4.72;;;;;;;;;;5102495;28;20649;-52
2021/03/18 01:54:09;;;;;;;8.77;4.70;;;;;;;;;;5102274;27;20040;-52
2021/03/18 01:56:35;;;;;;;10.07;3.70;;;;;;;;;;5103837;27;20439;-54
2021/03/18 01:59:00;;;;;;;6.57;3.83;;;;;;;;;;5098433;28;20119;-52
2021/03/18 02:01:26;;;;;;;8.60;4.25;;;;;;;;;;5098869;28;20138;-54
2021/03/18 02:03:51;;;;;;;7.43;3.58;;;;;;;;;;5101075;28;20122;-54
2021/03/18 02:06:17;;;;;;;5.70;3.65;;;;;;;;;;5104254;28;20046;-50
2021/03/18 02:08:43;;;;;;;8.90;3.35;;;;;;;;;;5102686;28;20392;-52
2021/03/18 02:11:09;;;;;;;6.18;3.35;;;;;;;;;;5102471;28;20038;-52
2021/03/18 02:13:34;;;;;;;5.78;3.45;;;;;;;;;;5101138;28;20028;-54
2021/03/18 02:16:11;;;;;;;5.00;3.10;;;;;;;;;;5099063;28;20125;-52
2021/03/18 02:18:52;;;;;;;7.28;3.22;;;;;;;;;;5100099;28;20020;-51
2021/03/18 02:21:36;;;;;;;10.35;4.18;;;;;;;;;;5101881;28;20038;-55
2021/03/18 02:24:28;;;;;;;7.32;2.45;;;;;;;;;;5101966;28;20590;-54
2021/03/18 02:27:18;;;;;;;6.70;3.47;;;;;;;;;;5101272;28;20395;-50
2021/03/18 02:30:07;;;;;;;7.13;3.72;;;;;;;;;;5100584;28;20020;-51
2021/03/18 02:32:42;;;;;;;10.65;3.47;;;;;;;;;;5096470;28;20039;-55
2021/03/18 02:35:30;;;;;;;7.82;3.92;;;;;;;;;;5101444;28;20031;-50
2021/03/18 02:38:18;;;;;;;6.00;3.53;;;;;;;;;;5101498;28;20039;-53
2021/03/18 02:41:06;;;;;;;8.10;3.95;;;;;;;;;;5104281;28;20497;-50
2021/03/18 02:43:41;;;;;;;9.82;4.20;;;;;;;;;;5101064;28;20126;-51
2021/03/18 02:46:08;;;;;;;7.70;3.88;;;;;;;;;;5105706;28;20059;-49
2021/03/18 02:48:36;;;;;;;8.73;3.75;;;;;;;;;;5111028;28;20707;-49
2021/03/18 02:51:03;;;;;;;9.10;4.40;;;;;;;;;;5107482;28;20036;-54
2021/03/18 02:53:33;;;;;;;7.35;4.03;;;;;;;;;;5100386;28;20595;-51
2021/03/18 02:56:02;;;;;;;7.13;3.70;;;;;;;;;;5105687;27;20346;-52
2021/03/18 02:58:30;;;;;;;9.98;3.92;;;;;;;;;;5101416;27;20522;-52
2021/03/18 03:00:58;;;;;;;6.68;3.67;;;;;;;;;;5102529;27;20028;-54
2021/03/18 03:03:24;;;;;;;10.13;3.63;;;;;;;;;;5102577;27;20077;-49
2021/03/18 03:05:52;;;;;;;7.13;3.90;;;;;;;;;;5106039;27;20030;-53
2021/03/18 03:08:19;;;;;;;9.95;4.10;;;;;;;;;;5103183;27;20075;-50
2021/03/18 03:10:47;;;;;;;8.23;3.85;;;;;;;;;;5103997;27;20483;-51
2021/03/18 03:13:15;;;;;;;9.73;4.40;;;;;;;;;;5101354;27;20032;-51
2021/03/18 03:15:40;;;;;;;9.43;3.40;;;;;;;;;;5104625;27;20030;-55
2021/03/18 03:18:08;;;;;;;9.75;4.57;;;;;;;;;;5107800;28;20040;-52
2021/03/18 03:20:34;;;;;;;7.10;4.05;;;;;;;;;;5102758;27;20024;-51
2021/03/18 03:23:03;;;;;;;7.78;3.88;;;;;;;;;;5106013;27;20084;-52
2021/03/18 03:25:29;;;;;;;7.05;3.92;;;;;;;;;;5106634;27;20550;-52
2021/03/18 03:27:54;;;;;;;9.65;4.13;;;;;;;;;;5103707;28;20038;-50
2021/03/18 03:30:21;;;;;;;7.88;3.72;;;;;;;;;;5104890;28;20031;-52
2021/03/18 03:32:46;;;;;;;6.95;3.67;;;;;;;;;;5103738;27;20081;-53
2021/03/18 03:35:14;;;;;;;7.72;3.60;;;;;;;;;;5100879;27;20032;-51
2021/03/18 03:37:42;;;;;;;7.18;3.78;;;;;;;;;;5103526;27;20141;-52
2021/03/18 03:40:09;;;;;;;6.65;3.90;;;;;;;;;;5104670;27;20569;-52
2021/03/18 03:42:35;;;;;;;7.57;3.50;;;;;;;;;;5104303;28;20027;-52
2021/03/18 03:45:02;;;;;;;7.10;3.53;;;;;;;;;;5104631;28;20094;-50
2021/03/18 03:47:28;;;;;;;12.25;4.55;;;;;;;;;;5106947;27;20034;-50
2021/03/18 03:49:53;;;;;;;7.80;3.85;;;;;;;;;;5096228;27;20477;-51
2021/03/18 03:52:22;;;;;;;9.70;3.97;;;;;;;;;;5098562;28;20061;-54
2021/03/18 03:55:07;;;;;;;8.27;4.00;;;;;;;;;;5097333;27;20039;-51
2021/03/18 03:57:54;;;;;;;8.05;3.38;;;;;;;;;;5098696;27;20035;-49
2021/03/18 04:00:21;;;;;;;6.78;3.50;;;;;;;;;;5104947;27;20027;-49
2021/03/18 04:02:50;;;;;;;9.80;3.97;;;;;;;;;;5106683;27;20051;-49
2021/03/18 04:05:16;;;;;;;11.05;3.78;;;;;;;;;;5097950;27;20484;-50
2021/03/18 04:07:44;;;;;;;9.48;4.20;;;;;;;;;;5102417;28;20027;-54
2021/03/18 04:10:11;;;;;;;9.27;3.88;;;;;;;;;;5100470;27;20104;-51
2021/03/18 04:12:39;;;;;;;9.68;4.30;;;;;;;;;;5102530;28;20020;-52
2021/03/18 04:15:14;;;;;;;8.75;3.85;;;;;;;;;;5098304;28;20036;-49
2021/03/18 04:17:43;;;;;;;7.70;4.07;;;;;;;;;;5104597;27;20032;-50
2021/03/18 04:20:12;;;;;;;7.57;4.15;;;;;;;;;;5103870;28;20039;-50
2021/03/18 04:22:40;;;;;;;8.02;4.50;;;;;;;;;;5104299;27;20038;-48
2021/03/18 04:25:07;;;;;;;17.48;3.65;;;;;;;;;;5098599;27;20427;-51
2021/03/18 04:27:34;;;;;;;7.05;3.60;;;;;;;;;;5100840;28;20035;-50
2021/03/18 04:30:02;;;;;;;12.30;4.63;;;;;;;;;;5104650;27;20613;-48
2021/03/18 04:32:28;;;;;;;6.75;4.10;;;;;;;;;;5104154;28;20104;-49
2021/03/18 04:34:54;;;;;;;6.72;3.67;;;;;;;;;;5100045;27;20031;-50
2021/03/18 04:37:21;;;;;;;9.63;4.22;;;;;;;;;;5100005;27;20047;-50
2021/03/18 04:39:47;;;;;;;6.43;3.33;;;;;;;;;;5103208;28;20038;-50
2021/03/18 04:42:13;;;;;;;6.32;3.80;;;;;;;;;;5096629;28;20023;-49
2021/03/18 04:44:44;;;;;;;9.45;3.83;;;;;;;;;;5100679;27;20051;-52
2021/03/18 04:47:11;;;;;;;;;;;;;;;;;;5102245;28;20341;-50
2021/03/18 04:49:38;;;;;;;8.82;4.05;;;;;;;;;;5099178;27;19995;-50
2021/03/18 04:52:04;;;;;;;12.48;4.03;;;;;;;;;;5101213;28;20035;-48
2021/03/18 04:54:29;;;;;;;10.73;3.60;;;;;;;;;;5104061;27;20518;-51
2021/03/18 04:56:56;;;;;;;6.45;3.55;;;;;;;;;;5102732;28;20032;-49
2021/03/18 04:59:22;;;;;;;8.85;3.72;;;;;;;;;;5103417;28;20440;-51
2021/03/18 05:01:50;;;;;;;8.23;3.92;;;;;;;;;;5101542;28;20052;-49
2021/03/18 05:04:17;;;;;;;7.97;3.70;;;;;;;;;;5098285;27;20039;-50
2021/03/18 05:06:50;;;;;;;10.43;3.92;;;;;;;;;;5104355;27;20024;-48
2021/03/18 05:09:16;;;;;;;13.65;4.40;;;;;;;;;;5109465;27;20042;-50
2021/03/18 05:11:43;;;;;;;11.10;3.92;;;;;;;;;;5109803;27;20028;-52
2021/03/18 05:14:09;;;;;;;8.93;3.78;;;;;;;;;;5095779;28;20036;-54
2021/03/18 05:16:36;;;;;;;5.65;3.83;;;;;;;;;;5099549;28;20077;-51
2021/03/18 05:19:12;;;;;;;9.15;4.45;;;;;;;;;;5098691;28;20115;-53
2021/03/18 05:21:39;;;;;;;9.45;3.72;;;;;;;;;;5097929;28;20028;-48
2021/03/18 05:24:07;;;;;;;8.57;4.45;;;;;;;;;;5108110;27;20495;-49
2021/03/18 05:26:32;;;;;;;7.25;3.83;;;;;;;;;;5098109;27;20097;-51
2021/03/18 05:28:58;;;;;;;18.90;4.40;;;;;;;;;;5103107;27;20123;-47
2021/03/18 05:31:23;;;;;;;8.50;3.53;;;;;;;;;;5102803;27;20038;-50
2021/03/18 05:33:50;;;;;;;7.13;3.72;;;;;;;;;;5094456;28;20058;-51
2021/03/18 05:36:16;;;;;;;7.57;4.35;;;;;;;;;;5098036;28;20075;-48
2021/03/18 05:38:41;;;;;;;7.80;4.05;;;;;;;;;;5101014;28;20020;-48
2021/03/18 05:41:07;;;;;;;5.65;3.90;;;;;;;;;;5102593;28;20027;-48
2021/03/18 05:43:33;;;;;;;7.57;5.35;;;;;;;;;;5100378;27;20544;-50
2021/03/18 05:45:58;;;;;;;10.32;4.80;;;;;;;;;;5099114;28;20040;-50
2021/03/18 05:48:24;;;;;;;12.93;4.18;;;;;;;;;;5099706;28;20035;-52
2021/03/18 05:50:51;;;;;;;10.45;4.50;;;;;;;;;;5100409;28;20028;-50
2021/03/18 05:53:18;;;;;;;9.90;4.57;;;;;;;;;;5102006;28;20031;-52
2021/03/18 05:55:44;;;;;;;8.43;3.72;;;;;;;;;;5101595;27;20035;-51
2021/03/18 05:58:12;;;;;;;9.48;4.07;;;;;;;;;;5095454;28;20066;-50
2021/03/18 06:00:38;;;;;;;11.25;3.80;;;;;;;;;;5101446;28;20090;-48
2021/03/18 06:03:04;;;;;;;9.27;4.85;;;;;;;;;;5102482;28;20453;-48
2021/03/18 06:05:29;;;;;;;11.05;4.38;;;;;;;;;;5102688;28;20058;-52
2021/03/18 06:07:55;;;;;;;7.22;4.18;;;;;;;;;;5098262;28;20042;-52
2021/03/18 06:10:25;;;;;;;7.85;3.60;;;;;;;;;;5093623;28;20424;-48
2021/03/18 06:12:53;;;;;;;7.60;4.00;;;;;;;;;;5087975;28;20115;-51
2021/03/18 06:15:19;;;;;;;6.75;3.63;;;;;;;;;;5096885;28;20027;-48
2021/03/18 06:17:45;;;;;;;7.03;3.92;;;;;;;;;;5110068;28;20051;-48
2021/03/18 06:20:15;;;;;;;7.07;3.97;;;;;;;;;;5106245;28;20476;-48
2021/03/18 06:22:46;;;;;;;9.80;5.18;;;;;;;;;;5105130;28;20036;-55
2021/03/18 06:25:32;;;;;;;;;;;;;;;;;;5109548;28;20032;-47
2021/03/18 06:28:19;;;;;;;8.40;4.15;;;;;;;;;;5101511;27;19916;-51
2021/03/18 06:31:11;;;;;;;9.60;4.80;;;;;;;;;;5105538;27;20093;-49
2021/03/18 06:33:50;;;;;;;10.02;4.97;;;;;;;;;;5106566;27;20352;-49
2021/03/18 06:36:25;;;;;;;7.38;4.13;;;;;;;;;;5102213;27;20612;-49
2021/03/18 06:39:06;;;;;;;8.68;4.00;;;;;;;;;;5107614;27;20031;-49
2021/03/18 06:41:38;;;;;;;9.25;4.50;;;;;;;;;;5105459;27;20491;-49
2021/03/18 06:44:05;;;;;;;9.00;4.65;;;;;;;;;;5100139;27;20114;-52
2021/03/18 06:46:31;;;;;;;10.63;4.82;;;;;;;;;;5102234;27;20127;-52
2021/03/18 06:48:57;;;;;;;8.70;4.72;;;;;;;;;;5113373;27;20134;-53
2021/03/18 06:51:26;;;;;;;6.80;4.35;;;;;;;;;;5112852;27;20035;-51
2021/03/18 06:53:55;;;;;;;9.63;3.97;;;;;;;;;;5086268;27;20069;-55
2021/03/18 06:56:23;;;;;;;7.38;3.83;;;;;;;;;;5107967;27;20024;-49
2021/03/18 06:58:49;;;;;;;9.02;4.72;;;;;;;;;;5103119;27;20050;-52
2021/03/18 07:01:14;;;;;;;7.00;3.83;;;;;;;;;;5100520;27;20048;-53
2021/03/18 07:03:40;;;;;;;5.93;4.05;;;;;;;;;;5104938;28;20020;-50
2021/03/18 07:06:07;;;;;;;12.18;4.90;;;;;;;;;;5105146;28;20434;-50
2021/03/18 07:08:35;;;;;;;11.05;7.07;;;;;;;;;;5102529;27;20070;-50
2021/03/18 07:11:16;;;;;;;10.20;5.07;;;;;;;;;;5101093;27;20032;-49
2021/03/18 07:13:42;;;;;;;8.20;4.43;;;;;;;;;;5089693;28;20127;-54
2021/03/18 07:16:13;;;;;;;11.15;4.38;;;;;;;;;;5113550;27;20043;-53
2021/03/18 07:18:39;;;;;;;10.07;4.47;;;;;;;;;;5111657;27;20468;-51
2021/03/18 07:21:12;;;;;;;14.13;4.80;;;;;;;;;;5111948;27;20111;-53
2021/03/18 07:23:41;;;;;;;11.45;4.50;;;;;;;;;;5112941;27;20436;-54
2021/03/18 07:26:17;;;;;;;6.90;4.18;;;;;;;;;;5112403;27;20089;-55
2021/03/18 07:28:48;;;;;;;14.52;8.82;;;;;;;;;;5102388;27;20055;-53
2021/03/18 07:31:16;;;;;;;65.45;40.47;;;;;;;;;;5109640;27;20035;-54
2021/03/18 07:33:43;;;;;;;47.42;23.83;;;;;;;;;;5112519;27;20016;-55
2021/03/18 07:36:09;;;;;;;8.75;6.32;;;;;;;;;;5112277;27;20039;-55
2021/03/18 07:38:36;;;;;;;9.68;4.53;;;;;;;;;;5111267;27;20031;-56
2021/03/18 07:41:02;;;;;;;10.95;5.18;;;;;;;;;;5100690;27;20035;-55
2021/03/18 07:43:29;;;;;;;6.07;4.28;;;;;;;;;;5100710;27;20096;-52
2021/03/18 07:45:55;;;;;;;9.27;4.97;;;;;;;;;;5108188;27;20123;-56
2021/03/18 07:48:23;;;;;;;8.32;4.47;;;;;;;;;;5111303;27;20084;-56
2021/03/18 07:50:50;;;;;;;8.77;4.63;;;;;;;;;;5101883;28;20388;-55
2021/03/18 07:53:18;;;;;;;7.88;4.90;;;;;;;;;;5101295;27;20354;-54
2021/03/18 07:55:47;;;;;;;11.15;4.60;;;;;;;;;;5103871;27;20548;-56
2021/03/18 07:58:12;;;;;;;12.23;4.85;;;;;;;;;;5104565;27;20039;-55
2021/03/18 08:00:43;;;;;;;12.25;4.90;;;;;;;;;;5104745;28;20097;-55
2021/03/18 08:03:21;;;;;;;7.28;4.38;;;;;;;;;;5100430;27;20051;-57
2021/03/18 08:05:46;;;;;;;7.30;4.68;;;;;;;;;;5107563;27;20139;-55
2021/03/18 08:08:30;;;;;;;7.65;4.65;;;;;;;;;;5106125;27;20130;-56
2021/03/18 08:11:15;;;;;;;6.40;3.97;;;;;;;;;;5103728;27;20491;-56
2021/03/18 08:13:43;;;;;;;8.85;4.35;;;;;;;;;;5098503;28;20112;-57
2021/03/18 08:16:30;;;;;;;7.40;4.57;;;;;;;;;;5112974;27;20259;-54
2021/03/18 08:18:56;;;;;;;7.95;4.10;;;;;;;;;;5107015;27;20031;-54
2021/03/18 08:21:32;;;;;;;6.72;3.33;;;;;;;;;;5108395;27;20015;-52
2021/03/18 08:23:58;;;;;;;11.10;4.50;;;;;;;;;;5109457;27;20043;-53
2021/03/18 08:26:49;;;;;;;5.60;3.75;;;;;;;;;;5098922;28;20028;-51
2021/03/18 08:29:37;;;;;;;8.85;3.10;;;;;;;;;;5089260;28;20044;-51
2021/03/18 08:32:09;;;;;;;7.22;3.72;;;;;;;;;;5103340;27;20088;-51
2021/03/18 08:34:46;;;;;;;;;;;;;;;;;;5104354;27;20038;-48
2021/03/18 08:37:13;;;;;;;7.60;3.70;;;;;;;;;;5103912;27;19918;-51
2021/03/18 08:39:48;;;;;;;11.68;3.85;;;;;;;;;;5100884;27;20380;-50
2021/03/18 08:42:35;;;;;;;7.20;3.55;;;;;;;;;;5110096;27;20031;-50
2021/03/18 08:45:24;;;;;;;6.93;3.75;;;;;;;;;;5111387;27;20061;-50
2021/03/18 08:47:51;;;;;;;6.30;4.05;;;;;;;;;;5097204;27;20067;-48
2021/03/18 08:50:23;;;;;;;6.25;3.40;;;;;;;;;;5093998;28;20201;-49
2021/03/18 08:52:48;;;;;;;5.90;3.45;;;;;;;;;;5100973;27;20118;-47
2021/03/18 08:55:41;;;;;;;6.88;3.42;;;;;;;;;;5098998;27;20460;-50
2021/03/18 08:58:09;;;;;;;10.77;3.75;;;;;;;;;;5099744;27;20381;-47
2021/03/18 09:00:35;;;;;;;8.52;4.03;;;;;;;;;;5101332;28;20519;-49
2021/03/18 09:03:02;;;;;;;9.57;3.75;;;;;;;;;;5103530;27;20027;-50
2021/03/18 09:05:28;;;;;;;6.47;3.65;;;;;;;;;;5101123;28;20032;-48
2021/03/18 09:07:57;;;;;;;6.13;3.90;;;;;;;;;;5109616;27;20089;-49
2021/03/18 09:10:28;;;;;;;6.00;3.88;;;;;;;;;;5110925;27;20476;-48
2021/03/18 09:12:59;;;;;;;10.63;4.35;;;;;;;;;;5103096;27;20031;-50
2021/03/18 09:15:30;;;;;;;9.63;4.47;;;;;;;;;;5110465;28;20038;-47
2021/03/18 09:18:10;;;;;;;7.40;4.00;;;;;;;;;;5097815;28;20059;-49
2021/03/18 09:20:36;;;;;;;6.95;3.70;;;;;;;;;;5110245;27;20039;-50
2021/03/18 09:23:20;;;;;;;9.40;4.15;;;;;;;;;;5096275;27;20118;-50
2021/03/18 09:25:50;;;;;;;9.15;4.05;;;;;;;;;;5106599;28;20040;-52
2021/03/18 09:28:16;;;;;;;7.90;3.55;;;;;;;;;;5106219;27;20465;-53
2021/03/18 09:30:45;;;;;;;7.55;4.05;;;;;;;;;;5101626;27;20023;-51
2021/03/18 09:33:26;;;;;;;11.43;4.15;;;;;;;;;;5101244;28;20592;-49
2021/03/18 09:35:55;;;;;;;9.95;4.07;;;;;;;;;;5105200;27;20032;-53
2021/03/18 09:38:28;;;;;;;6.85;4.53;;;;;;;;;;5109025;27;20054;-49
2021/03/18 09:40:55;;;;;;;16.65;4.45;;;;;;;;;;5107969;28;20461;-48
2021/03/18 09:43:22;;;;;;;8.10;4.20;;;;;;;;;;5106981;27;20457;-48
2021/03/18 09:46:09;;;;;;;8.05;4.38;;;;;;;;;;5108961;28;20096;-53
2021/03/18 09:48:36;;;;;;;10.02;4.75;;;;;;;;;;5108759;28;20032;-53
2021/03/18 09:51:15;;;;;;;8.85;4.90;;;;;;;;;;5107701;27;20040;-54
2021/03/18 09:53:42;;;;;;;10.68;4.53;;;;;;;;;;5105363;28;20042;-54
2021/03/18 09:56:13;;;;;;;8.68;4.35;;;;;;;;;;5107121;28;20024;-54
2021/03/18 09:58:39;;;;;;;9.30;4.90;;;;;;;;;;5105898;28;20088;-52
2021/03/18 10:01:14;;;;;;;10.02;4.68;;;;;;;;;;5108581;27;20556;-51
2021/03/18 10:03:58;;;;;;;8.25;4.15;;;;;;;;;;5109394;28;20059;-54
2021/03/18 10:06:36;;;;;;;13.68;4.90;;;;;;;;;;5109360;28;20100;-54
2021/03/18 10:09:24;;;;;;;10.63;4.65;;;;;;;;;;5108437;28;20117;-53
2021/03/18 10:11:53;;;;;;;9.45;5.00;;;;;;;;;;5103583;28;20425;-52
2021/03/18 10:14:18;;;;;;;8.88;4.70;;;;;;;;;;5089797;28;20034;-53
2021/03/18 10:16:46;;;;;;;9.70;5.03;;;;;;;;;;5107369;28;20075;-53
2021/03/18 10:19:12;;;;;;;8.25;4.40;;;;;;;;;;5109656;28;20442;-50
2021/03/18 10:21:39;;;;;;;9.07;4.65;;;;;;;;;;5104603;28;20024;-55
2021/03/18 10:24:07;;;;;;;9.75;4.60;;;;;;;;;;5108199;28;20391;-53
2021/03/18 10:26:32;;;;;;;9.23;5.20;;;;;;;;;;5106160;28;20027;-52
2021/03/18 10:28:59;;;;;;;11.38;5.35;;;;;;;;;;5111454;28;20112;-53
2021/03/18 10:31:25;;;;;;;11.95;4.00;;;;;;;;;;5094527;28;20023;-53
2021/03/18 10:33:51;;;;;;;8.75;4.80;;;;;;;;;;5095431;28;20027;-50
2021/03/18 10:36:31;;;;;;;12.07;5.00;;;;;;;;;;5108658;28;20099;-53
2021/03/18 10:38:59;;;;;;;9.43;5.35;;;;;;;;;;5109016;28;20126;-51
2021/03/18 10:41:25;;;;;;;8.30;4.53;;;;;;;;;;5106662;28;20035;-53
2021/03/18 10:43:50;;;;;;;12.73;5.28;;;;;;;;;;5110425;28;20035;-54
2021/03/18 10:46:30;;;;;;;11.30;4.93;;;;;;;;;;5102008;28;20056;-55
2021/03/18 10:48:56;;;;;;;15.95;4.47;;;;;;;;;;5098170;28;20027;-52
2021/03/18 10:51:22;;;;;;;8.63;4.18;;;;;;;;;;5098555;28;20047;-54
2021/03/18 10:53:51;;;;;;;8.48;4.95;;;;;;;;;;5101598;28;20236;-52
2021/03/18 10:56:25;;;;;;;5.03;3.38;;;;;;;;;;5097857;28;20027;-52
2021/03/18 10:58:51;;;;;;;10.45;4.22;;;;;;;;;;5100976;28;20028;-54
2021/03/18 11:01:25;;;;;;;9.05;4.85;;;;;;;;;;5108956;28;20030;-55
2021/03/18 11:03:51;;;;;;;11.57;4.53;;;;;;;;;;5099776;28;20032;-53
2021/03/18 11:06:17;;;;;;;8.20;5.70;;;;;;;;;;5098353;28;20373;-55
2021/03/18 11:08:45;;;;;;;6.82;4.25;;;;;;;;;;5093199;28;20058;-54
2021/03/18 11:11:16;;;;;;;9.40;4.88;;;;;;;;;;5101984;28;20383;-53
2021/03/18 11:13:42;;;;;;;9.63;4.40;;;;;;;;;;5096469;27;20048;-56
2021/03/18 11:16:09;;;;;;;9.77;5.03;;;;;;;;;;5112124;27;20036;-53
2021/03/18 11:18:41;;;;;;;8.25;4.47;;;;;;;;;;5112871;28;20330;-55
2021/03/18 11:21:23;;;;;;;8.77;4.63;;;;;;;;;;5113633;27;20036;-52
2021/03/18 11:23:50;;;;;;;8.63;4.45;;;;;;;;;;5109992;27;20130;-53
2021/03/18 11:26:19;;;;;;;6.90;4.85;;;;;;;;;;5099151;28;20024;-53
2021/03/18 11:29:01;;;;;;;8.25;4.20;;;;;;;;;;5104285;27;20107;-52
2021/03/18 11:31:30;;;;;;;7.53;4.78;;;;;;;;;;5101878;28;20038;-54
2021/03/18 11:33:56;;;;;;;9.43;4.20;;;;;;;;;;5104759;27;20043;-53
2021/03/18 11:36:22;;;;;;;7.93;4.82;;;;;;;;;;5105231;27;20024;-50
2021/03/18 11:38:49;;;;;;;6.45;4.00;;;;;;;;;;5103684;27;20042;-53
2021/03/18 11:41:15;;;;;;;9.10;4.47;;;;;;;;;;5101593;27;20028;-53
2021/03/18 11:43:41;;;;;;;8.02;4.53;;;;;;;;;;5102616;27;20032;-53
2021/03/18 11:46:06;;;;;;;12.93;5.13;;;;;;;;;;5107994;27;20044;-55
2021/03/18 11:48:33;;;;;;;6.25;4.28;;;;;;;;;;5102174;28;20020;-54
2021/03/18 11:50:58;;;;;;;8.48;4.57;;;;;;;;;;5107910;27;20044;-51
2021/03/18 11:53:24;;;;;;;9.10;4.30;;;;;;;;;;5107761;27;20040;-54
2021/03/18 11:55:51;;;;;;;12.85;4.40;;;;;;;;;;5108688;27;20031;-55
2021/03/18 11:58:17;;;;;;;7.22;4.63;;;;;;;;;;5099074;27;20032;-54
2021/03/18 12:00:42;;;;;;;7.82;4.82;;;;;;;;;;5090968;28;20037;-53
2021/03/18 12:03:10;;;;;;;7.18;4.90;;;;;;;;;;5087410;28;20046;-54
2021/03/18 12:05:36;;;;;;;7.70;4.78;;;;;;;;;;5103360;27;20069;-52
2021/03/18 12:08:03;;;;;;;10.18;5.55;;;;;;;;;;5098608;27;20063;-54
2021/03/18 12:10:28;;;;;;;8.52;5.28;;;;;;;;;;5101407;27;20058;-55
2021/03/18 12:12:54;;;;;;;8.73;4.60;;;;;;;;;;5109571;27;20444;-54
2021/03/18 12:15:19;;;;;;;7.78;4.38;;;;;;;;;;5104726;27;20384;-54
2021/03/18 12:17:45;;;;;;;9.57;3.83;;;;;;;;;;5111690;27;20028;-53
2021/03/18 12:20:15;;;;;;;10.55;4.45;;;;;;;;;;5113144;27;20176;-54
2021/03/18 12:22:42;;;;;;;6.40;3.58;;;;;;;;;;5113009;27;20031;-53
2021/03/18 12:25:08;;;;;;;7.40;3.90;;;;;;;;;;5106568;27;20469;-55
2021/03/18 12:27:33;;;;;;;10.63;4.60;;;;;;;;;;5102432;27;20166;-54
2021/03/18 12:29:59;;;;;;;7.82;4.45;;;;;;;;;;5105872;27;20540;-53
2021/03/18 12:32:24;;;;;;;7.90;4.63;;;;;;;;;;5098111;27;20032;-56
2021/03/18 12:34:50;;;;;;;7.07;4.93;;;;;;;;;;5101110;27;20027;-54
2021/03/18 12:37:17;;;;;;;7.72;5.00;;;;;;;;;;5100535;27;20043;-56
2021/03/18 12:39:43;;;;;;;7.43;4.60;;;;;;;;;;5103006;27;20031;-54
2021/03/18 12:42:11;;;;;;;10.05;4.80;;;;;;;;;;5104582;27;20050;-55
2021/03/18 12:44:36;;;;;;;8.40;5.07;;;;;;;;;;5103881;28;20035;-54
2021/03/18 12:47:02;;;;;;;8.18;3.95;;;;;;;;;;5086493;27;20050;-55
2021/03/18 12:49:27;;;;;;;8.90;6.35;;;;;;;;;;5103874;27;20039;-53
2021/03/18 12:51:53;;;;;;;10.60;5.93;;;;;;;;;;5103677;27;20108;-52
2021/03/18 12:54:18;;;;;;;8.75;6.00;;;;;;;;;;5103597;28;20051;-54
2021/03/18 12:56:43;;;;;;;8.18;5.82;;;;;;;;;;5102899;27;20027;-54
2021/03/18 12:59:09;;;;;;;11.73;6.75;;;;;;;;;;5099650;28;20032;-51
2021/03/18 13:01:35;;;;;;;9.45;6.93;;;;;;;;;;5100853;28;20579;-54
2021/03/18 13:04:01;;;;;;;13.00;7.53;;;;;;;;;;5104144;27;20031;-55
2021/03/18 13:06:26;;;;;;;9.60;7.18;;;;;;;;;;5103417;27;20582;-51
2021/03/18 13:08:51;;;;;;;17.40;7.75;;;;;;;;;;5100646;28;20484;-52
2021/03/18 13:11:17;;;;;;;11.38;7.47;;;;;;;;;;5100371;27;20064;-53
2021/03/18 13:13:44;;;;;;;9.27;7.72;;;;;;;;;;5099411;27;20089;-53
2021/03/18 13:16:09;;;;;;;9.70;7.25;;;;;;;;;;5108534;27;20036;-53
2021/03/18 13:18:35;;;;;;;12.27;8.82;;;;;;;;;;5100265;28;20570;-49
2021/03/18 13:21:00;;;;;;;17.90;12.07;;;;;;;;;;5111778;27;20106;-51
2021/03/18 13:23:26;;;;;;;13.50;10.05;;;;;;;;;;5101245;27;20077;-52
2021/03/18 13:25:52;;;;;;;20.65;14.70;;;;;;;;;;5106037;27;20040;-49
2021/03/18 13:28:17;;;;;;;12.13;8.85;;;;;;;;;;5107376;27;20055;-54
2021/03/18 13:30:43;;;;;;;12.35;7.70;;;;;;;;;;5106524;27;20045;-51
2021/03/18 13:33:09;;;;;;;10.65;8.30;;;;;;;;;;5099052;27;20696;-51
2021/03/18 13:35:36;;;;;;;9.23;7.30;;;;;;;;;;5099218;28;20031;-48
2021/03/18 13:38:01;;;;;;;11.60;7.30;;;;;;;;;;5105661;28;20035;-52
2021/03/18 13:40:30;;;;;;;12.13;8.50;;;;;;;;;;5104721;28;20033;-52
2021/03/18 13:42:56;;;;;;;10.35;7.10;;;;;;;;;;5107352;27;20100;-52
2021/03/18 13:45:21;;;;;;;10.02;6.82;;;;;;;;;;5106844;27;20031;-52
2021/03/18 13:47:47;;;;;;;10.77;8.32;;;;;;;;;;5100621;28;20031;-52
2021/03/18 13:50:13;;;;;;;13.15;10.77;;;;;;;;;;5102169;27;20032;-53
2021/03/18 13:52:39;;;;;;;14.00;8.43;;;;;;;;;;5101284;28;20057;-50
2021/03/18 13:55:06;;;;;;;8.77;7.38;;;;;;;;;;5094923;28;20024;-55
2021/03/18 13:57:31;;;;;;;13.02;9.93;;;;;;;;;;5098805;28;20024;-53
2021/03/18 13:59:57;;;;;;;13.90;9.07;;;;;;;;;;5102800;28;20124;-50
2021/03/18 14:02:22;;;;;;;12.07;9.50;;;;;;;;;;5087618;28;20089;-50
2021/03/18 14:04:48;;;;;;;14.75;8.82;;;;;;;;;;5100389;28;20031;-48
2021/03/18 14:07:14;;;;;;;15.45;10.15;;;;;;;;;;5103448;28;20484;-52
2021/03/18 14:09:41;;;;;;;11.85;9.98;;;;;;;;;;5103192;28;20096;-52
2021/03/18 14:12:07;;;;;;;13.45;10.23;;;;;;;;;;5097211;28;20039;-51
2021/03/18 14:14:33;;;;;;;14.27;9.20;;;;;;;;;;5094837;28;20132;-47
2021/03/18 14:16:59;;;;;;;14.25;9.45;;;;;;;;;;5107941;28;20468;-50
2021/03/18 14:19:24;;;;;;;13.38;9.43;;;;;;;;;;5103667;28;20738;-47
2021/03/18 14:21:49;;;;;;;14.00;10.25;;;;;;;;;;5107861;28;20054;-51
2021/03/18 14:24:15;;;;;;;14.07;9.68;;;;;;;;;;5107542;28;20039;-49
2021/03/18 14:26:40;;;;;;;17.60;9.75;;;;;;;;;;5109327;28;20488;-52
2021/03/18 14:29:06;;;;;;;13.27;9.70;;;;;;;;;;5109582;28;20050;-54
2021/03/18 14:31:31;;;;;;;12.68;8.70;;;;;;;;;;5107058;28;20483;-51
2021/03/18 14:33:57;;;;;;;17.83;9.05;;;;;;;;;;5103108;28;20071;-52
2021/03/18 14:36:22;;;;;;;10.57;8.07;;;;;;;;;;5099410;28;20115;-51
2021/03/18 14:38:48;;;;;;;10.05;7.78;;;;;;;;;;5111444;28;20503;-50
2021/03/18 14:41:13;;;;;;;12.82;9.25;;;;;;;;;;5106099;28;20027;-49
2021/03/18 14:43:38;;;;;;;10.20;7.43;;;;;;;;;;5110181;28;20044;-49
2021/03/18 14:46:04;;;;;;;9.25;7.75;;;;;;;;;;5109024;28;20046;-52
2021/03/18 14:48:30;;;;;;;12.38;9.40;;;;;;;;;;5109590;28;20038;-52
2021/03/18 14:50:55;;;;;;;11.68;8.30;;;;;;;;;;5103342;27;20027;-49